Time;durP1;ratioP1;P1;durP2;ratioP2;P2;SDS_P1;SDS_P2;PMS_P1;PMS_P2;Temp;Humidity;BMP_temperature;BMP_pressure;BME280_temperature;BME280_humidity;BME280_pressure;Samples;Min_cycle;Max_cycle;Signal;HPM_P1;HPM_P2
2022/01/29 00:01:55;;;;;;;19.80;8.30;;;;;;;;;;5037249;28;20041;-74
2022/01/29 00:04:22;;;;;;;23.08;8.23;;;;;;;;;;5019174;28;20465;-74
2022/01/29 00:06:49;;;;;;;19.83;8.48;;;;;;;;;;5022286;28;20049;-75
2022/01/29 00:09:17;;;;;;;18.42;7.57;;;;;;;;;;5020580;28;20071;-76
2022/01/29 00:11:45;;;;;;;15.68;6.93;;;;;;;;;;5052383;28;20032;-74
2022/01/29 00:14:12;;;;;;;15.77;7.18;;;;;;;;;;5051091;28;20045;-74
2022/01/29 00:16:41;;;;;;;20.23;7.55;;;;;;;;;;5041495;28;20044;-74
2022/01/29 00:19:08;;;;;;;17.70;7.00;;;;;;;;;;5017544;28;20572;-74
2022/01/29 00:21:36;;;;;;;16.05;7.35;;;;;;;;;;5050860;28;20049;-74
2022/01/29 00:24:03;;;;;;;14.40;7.63;;;;;;;;;;5040303;28;20092;-74
2022/01/29 00:26:30;;;;;;;18.23;7.82;;;;;;;;;;5020546;28;20137;-74
2022/01/29 00:29:04;;;;;;;12.82;7.47;;;;;;;;;;5021056;28;20532;-75
2022/01/29 00:31:31;;;;;;;15.73;7.30;;;;;;;;;;5020943;28;20060;-73
2022/01/29 00:34:02;;;;;;;19.60;8.45;;;;;;;;;;5020065;28;20579;-74
2022/01/29 00:36:30;;;;;;;20.95;9.20;;;;;;;;;;4981607;28;20046;-74
2022/01/29 00:38:57;;;;;;;12.30;6.38;;;;;;;;;;5011455;28;20051;-74
2022/01/29 00:41:25;;;;;;;15.70;7.07;;;;;;;;;;5030544;28;20636;-75
2022/01/29 00:43:56;;;;;;;16.02;7.63;;;;;;;;;;5020858;28;20061;-75
2022/01/29 00:46:24;;;;;;;13.60;8.15;;;;;;;;;;5015349;28;20050;-74
2022/01/29 00:48:51;;;;;;;14.40;7.97;;;;;;;;;;5025503;28;20124;-75
2022/01/29 00:51:18;;;;;;;17.35;7.55;;;;;;;;;;5023584;28;20417;-74
2022/01/29 00:53:46;;;;;;;17.00;8.45;;;;;;;;;;5017260;28;20064;-74
2022/01/29 00:56:13;;;;;;;16.75;8.43;;;;;;;;;;5026539;28;20135;-75
2022/01/29 00:58:47;;;;;;;14.35;7.25;;;;;;;;;;5001050;28;20124;-74
2022/01/29 01:01:15;;;;;;;12.65;7.55;;;;;;;;;;4969504;28;20116;-74
2022/01/29 01:03:45;;;;;;;15.00;8.18;;;;;;;;;;5024180;28;20039;-73
2022/01/29 01:06:15;;;;;;;11.27;6.63;;;;;;;;;;5031130;28;20048;-74
2022/01/29 01:08:44;;;;;;;16.17;7.85;;;;;;;;;;5040712;28;20039;-73
2022/01/29 01:11:12;;;;;;;13.05;6.88;;;;;;;;;;4974060;28;20049;-74
2022/01/29 01:13:40;;;;;;;21.77;7.70;;;;;;;;;;5046184;28;20053;-75
2022/01/29 01:16:10;;;;;;;16.35;8.77;;;;;;;;;;5026090;28;20049;-74
2022/01/29 01:18:37;;;;;;;18.50;8.77;;;;;;;;;;5043645;28;20059;-73
2022/01/29 01:21:05;;;;;;;15.23;7.65;;;;;;;;;;5022612;28;20060;-74
2022/01/29 01:23:32;;;;;;;14.57;7.57;;;;;;;;;;5039779;28;20567;-74
2022/01/29 01:26:07;;;;;;;18.50;7.88;;;;;;;;;;5024126;28;20758;-74
2022/01/29 01:28:40;;;;;;;17.25;8.88;;;;;;;;;;5009799;28;20552;-74
2022/01/29 01:31:07;;;;;;;20.08;8.93;;;;;;;;;;5022075;28;20055;-74
2022/01/29 01:33:37;;;;;;;18.45;10.23;;;;;;;;;;5025171;28;20118;-74
2022/01/29 01:36:07;;;;;;;18.58;10.57;;;;;;;;;;5024609;28;20128;-74
2022/01/29 01:41:14;;;;;;;15.57;8.95;;;;;;;;;;5017704;28;20064;-75
2022/01/29 01:43:45;;;;;;;17.48;9.38;;;;;;;;;;5019593;28;20085;-75
2022/01/29 01:46:16;;;;;;;14.32;8.50;;;;;;;;;;4984569;28;20048;-74
2022/01/29 01:48:46;;;;;;;15.13;8.48;;;;;;;;;;5020301;28;20045;-75
2022/01/29 01:51:17;;;;;;;14.60;8.60;;;;;;;;;;5016957;28;20127;-74
2022/01/29 01:53:45;;;;;;;13.30;7.68;;;;;;;;;;5002384;28;20488;-75
2022/01/29 01:56:15;;;;;;;12.60;7.60;;;;;;;;;;5002844;28;20824;-75
2022/01/29 01:58:43;;;;;;;11.25;7.40;;;;;;;;;;5001350;28;20440;-74
2022/01/29 02:01:12;;;;;;;13.63;8.15;;;;;;;;;;4961563;28;20050;-73
2022/01/29 02:03:40;;;;;;;12.93;7.68;;;;;;;;;;4966316;28;20121;-74
2022/01/29 02:06:08;;;;;;;10.48;8.30;;;;;;;;;;4979100;28;20823;-74
2022/01/29 02:08:37;;;;;;;14.70;8.35;;;;;;;;;;4983581;28;20054;-74
2022/01/29 02:11:06;;;;;;;13.35;8.48;;;;;;;;;;4959276;28;20511;-73
2022/01/29 02:13:33;;;;;;;12.90;7.93;;;;;;;;;;4977067;28;20183;-74
2022/01/29 02:16:03;;;;;;;11.98;8.50;;;;;;;;;;4979568;28;20057;-75
2022/01/29 02:18:31;;;;;;;10.10;7.95;;;;;;;;;;5000712;28;20140;-74
2022/01/29 02:20:59;;;;;;;13.93;8.82;;;;;;;;;;5003046;28;20060;-75
2022/01/29 02:23:26;;;;;;;13.48;7.97;;;;;;;;;;5004840;28;20053;-74
2022/01/29 02:25:54;;;;;;;15.98;8.73;;;;;;;;;;5013019;28;20041;-74
2022/01/29 02:28:22;;;;;;;11.88;7.97;;;;;;;;;;4996675;28;20123;-74
2022/01/29 02:30:56;;;;;;;12.00;7.93;;;;;;;;;;5000826;28;20163;-74
2022/01/29 02:33:24;;;;;;;16.75;9.10;;;;;;;;;;4986922;28;20081;-74
2022/01/29 02:35:52;;;;;;;13.27;8.90;;;;;;;;;;4986398;28;20073;-75
2022/01/29 02:38:21;;;;;;;14.15;9.20;;;;;;;;;;5012761;28;20111;-75
2022/01/29 02:40:58;;;;;;;15.60;9.43;;;;;;;;;;5040934;28;20049;-74
2022/01/29 02:43:30;;;;;;;9.85;8.27;;;;;;;;;;5029150;28;20033;-75
2022/01/29 02:46:06;;;;;;;13.15;8.02;;;;;;;;;;5037221;28;20050;-75
2022/01/29 02:48:34;;;;;;;10.00;7.40;;;;;;;;;;5037285;28;20049;-74
2022/01/29 02:51:01;;;;;;;13.15;8.80;;;;;;;;;;5019881;28;20133;-74
2022/01/29 02:53:30;;;;;;;14.13;7.95;;;;;;;;;;5053633;28;20075;-74
2022/01/29 02:55:57;;;;;;;12.38;8.35;;;;;;;;;;5041927;28;20064;-74
2022/01/29 02:58:24;;;;;;;13.13;7.95;;;;;;;;;;5028667;28;20045;-74
2022/01/29 03:00:52;;;;;;;13.00;7.82;;;;;;;;;;5040963;28;20041;-74
2022/01/29 03:03:20;;;;;;;14.93;8.57;;;;;;;;;;5038023;28;20632;-74
2022/01/29 03:05:48;;;;;;;9.73;7.75;;;;;;;;;;5023083;28;20041;-75
2022/01/29 03:08:15;;;;;;;13.43;7.95;;;;;;;;;;5032962;28;20137;-74
2022/01/29 03:10:42;;;;;;;11.63;8.05;;;;;;;;;;5040731;28;20494;-74
2022/01/29 03:13:10;;;;;;;11.45;7.93;;;;;;;;;;5046230;28;20055;-75
2022/01/29 03:15:37;;;;;;;12.43;8.25;;;;;;;;;;5042595;28;20539;-74
2022/01/29 03:18:05;;;;;;;10.75;8.48;;;;;;;;;;5042783;28;20076;-74
2022/01/29 03:20:32;;;;;;;15.75;9.45;;;;;;;;;;5040742;28;20309;-75
2022/01/29 03:23:00;;;;;;;16.92;9.27;;;;;;;;;;5022277;28;20037;-75
2022/01/29 03:25:27;;;;;;;13.60;9.48;;;;;;;;;;5040045;28;20058;-75
2022/01/29 03:27:55;;;;;;;12.80;8.05;;;;;;;;;;5041824;28;20512;-74
2022/01/29 03:30:22;;;;;;;12.63;8.70;;;;;;;;;;5042491;28;20045;-75
2022/01/29 03:32:50;;;;;;;11.82;7.63;;;;;;;;;;5042927;28;20068;-74
2022/01/29 03:35:17;;;;;;;11.98;7.72;;;;;;;;;;5024069;28;20045;-75
2022/01/29 03:37:46;;;;;;;11.55;8.13;;;;;;;;;;5035869;28;20120;-75
2022/01/29 03:40:16;;;;;;;10.27;8.27;;;;;;;;;;5013069;28;20370;-74
2022/01/29 03:42:55;;;;;;;13.70;8.07;;;;;;;;;;5042766;28;20124;-74
2022/01/29 03:45:23;;;;;;;16.17;8.48;;;;;;;;;;5042078;28;20045;-72
2022/01/29 03:47:50;;;;;;;12.35;8.10;;;;;;;;;;5041696;28;20095;-74
2022/01/29 03:50:17;;;;;;;15.60;8.68;;;;;;;;;;5041310;28;20068;-75
2022/01/29 03:52:45;;;;;;;14.43;8.90;;;;;;;;;;5045582;28;20463;-74
2022/01/29 03:55:12;;;;;;;9.57;7.97;;;;;;;;;;5028318;28;21114;-76
2022/01/29 03:57:40;;;;;;;10.32;7.05;;;;;;;;;;5039813;28;20082;-76
2022/01/29 04:00:07;;;;;;;11.32;6.85;;;;;;;;;;5042522;28;20061;-75
2022/01/29 04:02:35;;;;;;;10.30;7.57;;;;;;;;;;5045791;28;20124;-75
2022/01/29 04:05:03;;;;;;;10.68;7.55;;;;;;;;;;5047753;28;20098;-76
2022/01/29 04:07:31;;;;;;;12.95;8.73;;;;;;;;;;5049362;28;20057;-75
2022/01/29 04:09:59;;;;;;;13.57;9.10;;;;;;;;;;5048770;28;20039;-74
2022/01/29 04:12:30;;;;;;;10.70;8.13;;;;;;;;;;5055987;28;20119;-76
2022/01/29 04:14:58;;;;;;;13.90;9.03;;;;;;;;;;5046653;28;20049;-75
2022/01/29 04:17:26;;;;;;;14.77;9.98;;;;;;;;;;5044751;28;20059;-76
2022/01/29 04:19:53;;;;;;;10.18;8.45;;;;;;;;;;5045782;28;20141;-75
2022/01/29 04:22:20;;;;;;;14.63;8.27;;;;;;;;;;5045114;28;20053;-74
2022/01/29 04:24:48;;;;;;;9.82;7.65;;;;;;;;;;5046123;28;20342;-75
2022/01/29 04:27:17;;;;;;;8.80;6.50;;;;;;;;;;5021585;28;20069;-74
2022/01/29 04:29:55;;;;;;;13.13;8.10;;;;;;;;;;5026914;28;20048;-74
2022/01/29 04:32:34;;;;;;;13.20;7.60;;;;;;;;;;5025175;28;20052;-74
2022/01/29 04:35:01;;;;;;;14.77;8.68;;;;;;;;;;5028174;28;20131;-74
2022/01/29 04:37:29;;;;;;;11.27;8.65;;;;;;;;;;5039412;28;20053;-76
2022/01/29 04:39:56;;;;;;;10.75;8.27;;;;;;;;;;5044783;28;20133;-75
2022/01/29 04:42:23;;;;;;;13.63;8.32;;;;;;;;;;5044615;28;20048;-75
2022/01/29 04:44:51;;;;;;;11.55;8.35;;;;;;;;;;5045802;28;20056;-75
2022/01/29 04:47:18;;;;;;;11.40;8.10;;;;;;;;;;5024417;28;20045;-75
2022/01/29 04:49:46;;;;;;;9.80;8.25;;;;;;;;;;5025622;28;20382;-75
2022/01/29 04:52:13;;;;;;;11.35;7.53;;;;;;;;;;5044908;28;20045;-75
2022/01/29 04:54:40;;;;;;;12.35;7.70;;;;;;;;;;5045778;28;20461;-74
2022/01/29 04:57:08;;;;;;;11.07;8.00;;;;;;;;;;5044975;28;20140;-75
2022/01/29 04:59:35;;;;;;;9.07;7.07;;;;;;;;;;5044078;28;20436;-75
2022/01/29 05:02:03;;;;;;;11.45;8.20;;;;;;;;;;5046279;28;20136;-75
2022/01/29 05:04:30;;;;;;;11.68;7.78;;;;;;;;;;5044051;28;20481;-75
2022/01/29 05:06:58;;;;;;;11.90;8.02;;;;;;;;;;5041025;28;20682;-75
2022/01/29 05:09:25;;;;;;;11.18;7.80;;;;;;;;;;5044265;28;20534;-75
2022/01/29 05:11:54;;;;;;;12.38;8.85;;;;;;;;;;5042924;28;20252;-75
2022/01/29 05:14:51;;;;;;;9.32;7.53;;;;;;;;;;5044686;28;20067;-74
2022/01/29 05:28:18;;;;;;;11.82;7.80;;;;;;;;;;5003268;28;20211;-75
2022/01/29 05:30:45;;;;;;;11.00;7.38;;;;;;;;;;5009075;28;20049;-74
2022/01/29 05:33:12;;;;;;;10.30;7.70;;;;;;;;;;5002543;28;20116;-74
2022/01/29 05:35:40;;;;;;;13.35;8.73;;;;;;;;;;5002259;28;20128;-75
2022/01/29 05:38:07;;;;;;;9.77;8.60;;;;;;;;;;5009894;28;20516;-74
2022/01/29 05:40:34;;;;;;;10.75;8.93;;;;;;;;;;5004300;28;20573;-75
2022/01/29 05:43:02;;;;;;;11.32;8.10;;;;;;;;;;5000449;28;20769;-74
2022/01/29 05:45:29;;;;;;;12.60;9.75;;;;;;;;;;5003260;28;20049;-74
2022/01/29 05:47:57;;;;;;;11.68;8.48;;;;;;;;;;4998555;28;20088;-75
2022/01/29 05:50:24;;;;;;;11.60;9.20;;;;;;;;;;5001171;28;20394;-75
2022/01/29 05:52:52;;;;;;;14.50;9.50;;;;;;;;;;5002611;28;20054;-74
2022/01/29 05:55:19;;;;;;;14.57;9.77;;;;;;;;;;5003171;28;20768;-75
2022/01/29 05:57:48;;;;;;;11.38;9.45;;;;;;;;;;4994944;28;20050;-75
2022/01/29 06:00:16;;;;;;;14.00;9.02;;;;;;;;;;5001449;28;20045;-75
2022/01/29 06:02:43;;;;;;;12.07;8.40;;;;;;;;;;5007347;28;20069;-75
2022/01/29 06:05:11;;;;;;;12.68;8.52;;;;;;;;;;5040087;28;20041;-74
2022/01/29 06:07:38;;;;;;;12.43;9.60;;;;;;;;;;5037508;28;20444;-75
2022/01/29 06:10:06;;;;;;;13.10;9.25;;;;;;;;;;5023953;28;20078;-75
2022/01/29 06:12:37;;;;;;;13.23;9.68;;;;;;;;;;5037451;28;20404;-74
2022/01/29 06:15:05;;;;;;;14.35;9.45;;;;;;;;;;5046208;28;20096;-75
2022/01/29 06:17:32;;;;;;;13.15;9.73;;;;;;;;;;5044083;28;20144;-74
2022/01/29 06:20:00;;;;;;;12.20;9.23;;;;;;;;;;5042535;28;20124;-74
2022/01/29 06:22:27;;;;;;;14.35;10.15;;;;;;;;;;5048380;28;20588;-75
2022/01/29 06:24:55;;;;;;;12.77;9.45;;;;;;;;;;5048480;28;20455;-75
2022/01/29 06:27:22;;;;;;;9.40;7.75;;;;;;;;;;5049215;28;20080;-74
2022/01/29 06:29:50;;;;;;;10.05;7.40;;;;;;;;;;5042667;28;20033;-74
2022/01/29 06:32:17;;;;;;;10.30;8.15;;;;;;;;;;5045734;28;20060;-76
2022/01/29 06:34:45;;;;;;;10.63;8.63;;;;;;;;;;5052130;28;20083;-75
2022/01/29 06:37:12;;;;;;;13.02;8.77;;;;;;;;;;5033920;28;20150;-75
2022/01/29 06:39:39;;;;;;;12.73;8.43;;;;;;;;;;5051150;28;20059;-76
2022/01/29 06:42:07;;;;;;;13.38;9.60;;;;;;;;;;5034857;28;20040;-75
2022/01/29 06:44:34;;;;;;;8.00;6.30;;;;;;;;;;5048693;28;20136;-75
2022/01/29 06:47:02;;;;;;;11.30;8.23;;;;;;;;;;5048041;28;20037;-75
2022/01/29 06:49:31;;;;;;;9.25;7.72;;;;;;;;;;5040542;28;20431;-74
2022/01/29 06:51:58;;;;;;;9.85;8.05;;;;;;;;;;5049263;28;20051;-75
2022/01/29 06:54:26;;;;;;;14.13;7.50;;;;;;;;;;5051436;28;20064;-74
2022/01/29 06:56:53;;;;;;;9.18;8.25;;;;;;;;;;5030142;28;20140;-74
2022/01/29 06:59:20;;;;;;;11.05;8.70;;;;;;;;;;5048547;28;20041;-74
2022/01/29 07:01:48;;;;;;;11.18;8.10;;;;;;;;;;5015956;28;20132;-73
2022/01/29 07:04:15;;;;;;;12.77;9.02;;;;;;;;;;5064850;28;20040;-74
2022/01/29 07:06:43;;;;;;;9.73;8.10;;;;;;;;;;5051971;28;20037;-74
2022/01/29 07:09:10;;;;;;;12.07;8.88;;;;;;;;;;5044732;28;20105;-74
2022/01/29 07:11:38;;;;;;;11.32;7.85;;;;;;;;;;5049385;28;20572;-74
2022/01/29 07:14:05;;;;;;;11.93;8.50;;;;;;;;;;5060204;28;20175;-75
2022/01/29 07:16:34;;;;;;;10.88;8.40;;;;;;;;;;5039397;28;20457;-74
2022/01/29 07:19:03;;;;;;;10.73;8.77;;;;;;;;;;5054056;28;20072;-74
2022/01/29 07:21:30;;;;;;;10.55;8.13;;;;;;;;;;5033318;28;20044;-74
2022/01/29 07:23:58;;;;;;;10.50;9.20;;;;;;;;;;5032862;28;20037;-73
2022/01/29 07:26:25;;;;;;;14.25;9.70;;;;;;;;;;5024772;28;20065;-74
2022/01/29 07:28:53;;;;;;;12.20;9.20;;;;;;;;;;5053207;28;20562;-74
2022/01/29 07:31:20;;;;;;;10.80;7.72;;;;;;;;;;5052267;28;20060;-74
2022/01/29 07:33:49;;;;;;;11.27;9.10;;;;;;;;;;5034179;28;20059;-73
2022/01/29 07:36:17;;;;;;;12.95;9.00;;;;;;;;;;5048157;28;20083;-74
2022/01/29 07:38:45;;;;;;;10.23;8.27;;;;;;;;;;5053157;28;20140;-74
2022/01/29 07:41:12;;;;;;;9.23;6.38;;;;;;;;;;5052655;28;20041;-74
2022/01/29 07:43:39;;;;;;;10.15;6.43;;;;;;;;;;5060327;28;20132;-74
2022/01/29 07:46:07;;;;;;;9.55;7.18;;;;;;;;;;5049726;28;20045;-74
2022/01/29 07:48:34;;;;;;;9.43;7.32;;;;;;;;;;5050896;28;20088;-74
2022/01/29 07:51:01;;;;;;;9.18;7.75;;;;;;;;;;5048491;28;20408;-75
2022/01/29 07:53:29;;;;;;;10.48;8.35;;;;;;;;;;5052513;28;20457;-73
2022/01/29 07:55:56;;;;;;;10.50;8.57;;;;;;;;;;5037739;28;20519;-74
2022/01/29 07:58:24;;;;;;;11.93;8.10;;;;;;;;;;5040267;28;20068;-74
2022/01/29 08:00:51;;;;;;;9.43;7.85;;;;;;;;;;5048700;28;20041;-73
2022/01/29 08:03:19;;;;;;;8.48;7.50;;;;;;;;;;5038210;28;20080;-74
2022/01/29 08:05:47;;;;;;;10.82;7.38;;;;;;;;;;5023692;28;20037;-74
2022/01/29 08:08:20;;;;;;;11.32;8.15;;;;;;;;;;5047043;28;20033;-73
2022/01/29 08:10:47;;;;;;;10.13;7.10;;;;;;;;;;5035054;28;20033;-74
2022/01/29 08:13:15;;;;;;;13.02;8.05;;;;;;;;;;5071055;28;20060;-75
2022/01/29 08:15:42;;;;;;;12.32;8.70;;;;;;;;;;5061312;28;20122;-73
2022/01/29 08:18:10;;;;;;;12.50;8.80;;;;;;;;;;5042413;28;20064;-74
2022/01/29 08:20:37;;;;;;;15.75;8.88;;;;;;;;;;5042901;28;20090;-74
2022/01/29 08:23:08;;;;;;;9.27;8.38;;;;;;;;;;5047594;28;20484;-74
2022/01/29 08:25:36;;;;;;;10.18;7.95;;;;;;;;;;5050919;28;20116;-74
2022/01/29 08:28:03;;;;;;;9.65;8.52;;;;;;;;;;5050724;28;20041;-74
2022/01/29 08:30:31;;;;;;;10.38;8.32;;;;;;;;;;5041356;28;20481;-74
2022/01/29 08:32:59;;;;;;;12.23;9.93;;;;;;;;;;5050617;28;20041;-74
2022/01/29 08:35:27;;;;;;;12.85;8.88;;;;;;;;;;5046871;28;20128;-74
2022/01/29 08:37:57;;;;;;;9.10;7.93;;;;;;;;;;5032806;28;20132;-75
2022/01/29 08:40:25;;;;;;;11.18;8.68;;;;;;;;;;5044004;28;20095;-76
2022/01/29 08:42:52;;;;;;;13.05;9.40;;;;;;;;;;5044424;28;20124;-74
2022/01/29 08:45:20;;;;;;;11.38;8.60;;;;;;;;;;5044970;28;20132;-74
2022/01/29 08:47:48;;;;;;;10.68;7.75;;;;;;;;;;5046701;28;20060;-73
2022/01/29 08:50:15;;;;;;;9.40;7.80;;;;;;;;;;5049132;28;20060;-74
2022/01/29 08:52:43;;;;;;;9.98;8.02;;;;;;;;;;5048056;28;20116;-73
2022/01/29 08:55:10;;;;;;;9.52;7.50;;;;;;;;;;5050864;28;20118;-74
2022/01/29 08:57:38;;;;;;;10.52;8.02;;;;;;;;;;5051512;28;20041;-73
2022/01/29 09:00:07;;;;;;;12.57;7.85;;;;;;;;;;5051163;28;20124;-76
2022/01/29 09:02:35;;;;;;;7.55;6.68;;;;;;;;;;5047618;28;20040;-74
2022/01/29 09:05:03;;;;;;;8.50;7.35;;;;;;;;;;5031031;28;20050;-74
2022/01/29 09:07:30;;;;;;;7.57;6.35;;;;;;;;;;5049299;28;20064;-74
2022/01/29 09:09:58;;;;;;;10.35;5.97;;;;;;;;;;5046032;28;20099;-73
2022/01/29 09:12:25;;;;;;;7.25;5.50;;;;;;;;;;5050527;28;20408;-74
2022/01/29 09:14:52;;;;;;;10.88;6.72;;;;;;;;;;5051242;28;20481;-75
2022/01/29 09:17:20;;;;;;;7.47;5.78;;;;;;;;;;5050696;28;20095;-73
2022/01/29 09:19:47;;;;;;;6.20;5.60;;;;;;;;;;5051109;28;20053;-76
2022/01/29 09:22:15;;;;;;;9.25;7.15;;;;;;;;;;5033360;28;20127;-74
2022/01/29 09:24:42;;;;;;;7.70;6.18;;;;;;;;;;5046309;28;20041;-74
2022/01/29 09:27:10;;;;;;;6.35;5.65;;;;;;;;;;5032686;28;20073;-76
2022/01/29 09:29:38;;;;;;;8.90;5.90;;;;;;;;;;5050238;28;20033;-74
2022/01/29 09:32:06;;;;;;;7.38;5.43;;;;;;;;;;5051578;28;20501;-74
2022/01/29 09:34:33;;;;;;;5.95;5.13;;;;;;;;;;5051376;28;20123;-73
2022/01/29 09:37:00;;;;;;;7.28;5.03;;;;;;;;;;5049709;28;20522;-73
2022/01/29 09:39:28;;;;;;;7.45;5.40;;;;;;;;;;5050836;28;20133;-74
2022/01/29 09:41:56;;;;;;;5.22;4.07;;;;;;;;;;5046613;28;20099;-74
2022/01/29 09:44:23;;;;;;;7.20;5.18;;;;;;;;;;5047171;28;20045;-74
2022/01/29 09:46:52;;;;;;;7.13;4.57;;;;;;;;;;4991571;28;20045;-74
2022/01/29 09:49:19;;;;;;;7.15;4.97;;;;;;;;;;5007949;28;20053;-75
2022/01/29 09:51:47;;;;;;;8.43;4.60;;;;;;;;;;5008151;28;20124;-74
2022/01/29 09:54:14;;;;;;;6.47;4.60;;;;;;;;;;5007112;28;20065;-74
2022/01/29 09:56:42;;;;;;;7.72;5.25;;;;;;;;;;5009606;28;20653;-74
2022/01/29 09:59:09;;;;;;;5.70;4.75;;;;;;;;;;5000250;28;20335;-73
2022/01/29 10:01:36;;;;;;;5.03;4.53;;;;;;;;;;5007703;28;20449;-73
2022/01/29 10:04:05;;;;;;;5.78;4.70;;;;;;;;;;5008684;28;20073;-74
2022/01/29 10:06:34;;;;;;;5.45;4.47;;;;;;;;;;5011636;28;20096;-74
2022/01/29 10:09:06;;;;;;;5.30;4.05;;;;;;;;;;5004131;28;20052;-72
2022/01/29 10:11:34;;;;;;;6.88;4.97;;;;;;;;;;5007968;28;20058;-73
2022/01/29 10:14:02;;;;;;;8.07;4.65;;;;;;;;;;5021634;28;20061;-74
2022/01/29 10:16:30;;;;;;;4.65;4.15;;;;;;;;;;5014253;28;20053;-74
2022/01/29 10:19:05;;;;;;;9.93;5.93;;;;;;;;;;5046631;28;20076;-75
2022/01/29 10:21:37;;;;;;;8.55;4.90;;;;;;;;;;5047450;28;20063;-77
2022/01/29 10:24:08;;;;;;;8.55;5.68;;;;;;;;;;5049845;28;20063;-74
2022/01/29 10:26:45;;;;;;;5.68;4.65;;;;;;;;;;5046187;28;20136;-74
2022/01/29 10:29:19;;;;;;;7.18;4.90;;;;;;;;;;5024304;28;20077;-74
2022/01/29 10:31:47;;;;;;;8.00;5.47;;;;;;;;;;5021770;28;20127;-74
2022/01/29 10:34:24;;;;;;;10.18;5.82;;;;;;;;;;5049413;28;20505;-74
2022/01/29 10:37:10;;;;;;;6.43;5.10;;;;;;;;;;5049496;28;20055;-75
2022/01/29 10:39:38;;;;;;;5.40;4.60;;;;;;;;;;5044211;28;20088;-75
2022/01/29 10:42:23;;;;;;;5.65;4.85;;;;;;;;;;5048569;28;20072;-74
2022/01/29 10:44:59;;;;;;;7.78;5.30;;;;;;;;;;5040055;28;20564;-75
2022/01/29 10:47:27;;;;;;;6.57;4.68;;;;;;;;;;5022262;28;20065;-74
2022/01/29 10:49:55;;;;;;;6.25;4.75;;;;;;;;;;5046812;28;20471;-74
2022/01/29 10:52:28;;;;;;;7.20;4.55;;;;;;;;;;5050206;28;20065;-76
2022/01/29 10:55:05;;;;;;;4.85;4.35;;;;;;;;;;5033697;28;20060;-74
2022/01/29 10:57:35;;;;;;;4.65;4.18;;;;;;;;;;5046644;28;20051;-75
2022/01/29 11:00:05;;;;;;;5.28;4.70;;;;;;;;;;5042495;28;20068;-74
2022/01/29 11:02:33;;;;;;;6.95;5.07;;;;;;;;;;5027795;28;20110;-75
2022/01/29 11:05:05;;;;;;;6.45;4.85;;;;;;;;;;5040460;28;20067;-74
2022/01/29 11:07:34;;;;;;;5.57;4.25;;;;;;;;;;5045614;28;20043;-75
2022/01/29 11:10:05;;;;;;;7.53;4.82;;;;;;;;;;5029374;28;20137;-75
2022/01/29 11:12:44;;;;;;;6.22;4.53;;;;;;;;;;5030797;28;20556;-75
2022/01/29 11:15:12;;;;;;;7.85;5.75;;;;;;;;;;5052867;28;20067;-75
2022/01/29 11:17:49;;;;;;;5.95;4.85;;;;;;;;;;5062617;28;20044;-75
2022/01/29 11:20:21;;;;;;;6.60;4.80;;;;;;;;;;5046768;28;20037;-75
2022/01/29 11:22:50;;;;;;;6.72;5.88;;;;;;;;;;5052180;28;20434;-74
2022/01/29 11:25:21;;;;;;;6.30;5.22;;;;;;;;;;5049198;28;20125;-75
2022/01/29 11:27:48;;;;;;;6.63;4.57;;;;;;;;;;5048576;28;20119;-74
2022/01/29 11:30:16;;;;;;;6.13;4.40;;;;;;;;;;5030773;28;20064;-74
2022/01/29 11:32:44;;;;;;;7.53;4.95;;;;;;;;;;5031185;28;20064;-76
2022/01/29 11:35:12;;;;;;;7.15;5.20;;;;;;;;;;5048930;28;20080;-76
2022/01/29 11:37:39;;;;;;;8.57;5.72;;;;;;;;;;5047094;28;20128;-73
2022/01/29 11:40:18;;;;;;;8.95;5.18;;;;;;;;;;5046852;28;20125;-73
2022/01/29 11:42:55;;;;;;;7.35;4.30;;;;;;;;;;5032344;28;20580;-75
2022/01/29 11:45:33;;;;;;;5.60;3.65;;;;;;;;;;5042256;28;20124;-73
2022/01/29 11:48:01;;;;;;;4.47;3.33;;;;;;;;;;5045301;28;20037;-74
2022/01/29 11:50:28;;;;;;;4.50;3.65;;;;;;;;;;5011700;28;20080;-75
2022/01/29 11:53:04;;;;;;;4.65;3.60;;;;;;;;;;5037668;28;20124;-75
2022/01/29 11:55:36;;;;;;;3.85;3.17;;;;;;;;;;5030523;28;20053;-74
2022/01/29 11:58:20;;;;;;;5.50;3.85;;;;;;;;;;5048808;28;20056;-74
2022/01/29 12:00:52;;;;;;;4.28;3.88;;;;;;;;;;5045495;28;20033;-74
2022/01/29 12:03:36;;;;;;;7.32;4.65;;;;;;;;;;5028722;28;20132;-75
2022/01/29 12:09:00;;;;;;;5.13;4.05;;;;;;;;;;5023008;28;20416;-73
2022/01/29 12:11:28;;;;;;;5.80;3.97;;;;;;;;;;5025941;28;20452;-74
2022/01/29 12:14:14;;;;;;;4.70;4.10;;;;;;;;;;5067125;28;20222;-74
2022/01/29 12:16:55;;;;;;;6.32;4.88;;;;;;;;;;5040308;28;20505;-75
2022/01/29 12:19:41;;;;;;;4.72;4.32;;;;;;;;;;5044844;28;20440;-76
2022/01/29 12:22:11;;;;;;;7.45;4.68;;;;;;;;;;5019349;28;20076;-74
2022/01/29 12:24:40;;;;;;;7.90;4.95;;;;;;;;;;5045162;28;20531;-74
2022/01/29 12:27:09;;;;;;;5.00;4.45;;;;;;;;;;5025406;28;20128;-74
2022/01/29 12:29:36;;;;;;;6.75;5.05;;;;;;;;;;5041084;28;20526;-75
2022/01/29 12:32:04;;;;;;;6.22;4.50;;;;;;;;;;5039772;28;20151;-75
2022/01/29 12:34:37;;;;;;;4.75;4.25;;;;;;;;;;5064081;28;20264;-75
2022/01/29 12:37:20;;;;;;;4.65;4.10;;;;;;;;;;5058283;28;20080;-75
2022/01/29 12:40:05;;;;;;;3.97;3.55;;;;;;;;;;5027995;28;20037;-76
2022/01/29 12:42:44;;;;;;;4.93;4.47;;;;;;;;;;5027651;28;20065;-75
2022/01/29 12:45:13;;;;;;;5.47;4.50;;;;;;;;;;5027153;28;20041;-78
2022/01/29 12:47:40;;;;;;;7.95;5.00;;;;;;;;;;5043115;28;20099;-74
2022/01/29 12:50:08;;;;;;;5.57;4.30;;;;;;;;;;5033637;28;20063;-74
2022/01/29 12:52:35;;;;;;;5.20;4.50;;;;;;;;;;5051635;28;20671;-74
2022/01/29 12:55:04;;;;;;;6.00;4.13;;;;;;;;;;5050714;28;20481;-74
2022/01/29 12:57:45;;;;;;;10.35;5.63;;;;;;;;;;5049333;28;20041;-75
2022/01/29 13:00:14;;;;;;;7.18;5.55;;;;;;;;;;5050531;28;20156;-75
2022/01/29 13:02:42;;;;;;;5.32;3.80;;;;;;;;;;5051239;28;20129;-75
2022/01/29 13:05:09;;;;;;;5.43;4.93;;;;;;;;;;5050614;28;20051;-74
2022/01/29 13:07:38;;;;;;;6.32;5.28;;;;;;;;;;5030823;28;20132;-75
2022/01/29 13:10:07;;;;;;;8.73;6.97;;;;;;;;;;5013404;28;20148;-74
2022/01/29 13:12:41;;;;;;;8.70;6.20;;;;;;;;;;5020608;28;20128;-74
2022/01/29 13:15:10;;;;;;;7.00;6.10;;;;;;;;;;5044135;28;20095;-74
2022/01/29 13:17:42;;;;;;;6.22;4.22;;;;;;;;;;5051127;28;20122;-75
2022/01/29 13:20:09;;;;;;;;;;;;;;;;;;5049139;28;20129;-75
2022/01/29 13:22:41;;;;;;;6.40;4.35;;;;;;;;;;5043190;28;20007;-74
2022/01/29 13:25:09;;;;;;;5.22;4.35;;;;;;;;;;5032901;28;20079;-75
2022/01/29 13:27:40;;;;;;;5.50;4.80;;;;;;;;;;5029781;28;20462;-75
2022/01/29 13:30:21;;;;;;;7.53;4.82;;;;;;;;;;5044518;28;20275;-74
2022/01/29 13:32:49;;;;;;;5.40;4.50;;;;;;;;;;5026523;28;20106;-74
2022/01/29 13:35:25;;;;;;;4.57;3.45;;;;;;;;;;5050470;28;20087;-74
2022/01/29 13:37:58;;;;;;;4.95;3.80;;;;;;;;;;5059673;28;20080;-75
2022/01/29 13:40:45;;;;;;;10.18;5.53;;;;;;;;;;5038267;28;20064;-74
2022/01/29 13:43:14;;;;;;;3.33;2.92;;;;;;;;;;5043619;28;20059;-75
2022/01/29 13:45:52;;;;;;;7.57;4.57;;;;;;;;;;5044971;28;20037;-74
2022/01/29 13:48:20;;;;;;;5.05;4.40;;;;;;;;;;5043104;28;20081;-74
2022/01/29 13:50:54;;;;;;;5.15;4.65;;;;;;;;;;5031164;28;20038;-75
2022/01/29 13:53:23;;;;;;;5.70;4.55;;;;;;;;;;5026394;28;20543;-75
2022/01/29 13:56:10;;;;;;;4.72;4.00;;;;;;;;;;5041895;28;20576;-75
2022/01/29 13:58:46;;;;;;;6.75;4.43;;;;;;;;;;5024104;28;20068;-75
2022/01/29 14:01:13;;;;;;;6.78;3.97;;;;;;;;;;5041602;28;20617;-73
2022/01/29 14:03:41;;;;;;;5.75;4.53;;;;;;;;;;5030247;28;20092;-75
2022/01/29 14:06:19;;;;;;;4.32;3.92;;;;;;;;;;5042423;28;20044;-74
2022/01/29 14:08:47;;;;;;;4.57;4.18;;;;;;;;;;5052405;28;20535;-74
2022/01/29 14:11:16;;;;;;;5.53;4.35;;;;;;;;;;5049566;28;20056;-74
2022/01/29 14:13:43;;;;;;;6.07;4.72;;;;;;;;;;5050579;28;20111;-74
2022/01/29 14:16:11;;;;;;;7.93;4.95;;;;;;;;;;5053367;28;20324;-74
2022/01/29 14:18:38;;;;;;;5.93;4.80;;;;;;;;;;5049312;28;20057;-75
2022/01/29 14:21:06;;;;;;;8.02;4.63;;;;;;;;;;5031334;28;20068;-75
2022/01/29 14:23:33;;;;;;;6.32;4.40;;;;;;;;;;5046114;28;20252;-74
2022/01/29 14:26:17;;;;;;;6.90;4.90;;;;;;;;;;5047791;28;20095;-74
2022/01/29 14:28:44;;;;;;;5.55;4.88;;;;;;;;;;5042091;28;20037;-74
2022/01/29 14:31:11;;;;;;;8.80;5.25;;;;;;;;;;5029739;28;20460;-75
2022/01/29 14:33:39;;;;;;;7.30;5.20;;;;;;;;;;5041981;28;20037;-74
2022/01/29 14:36:06;;;;;;;5.63;4.90;;;;;;;;;;5041578;28;20045;-74
2022/01/29 14:38:34;;;;;;;6.72;5.10;;;;;;;;;;5033890;28;20049;-74
2022/01/29 14:41:01;;;;;;;6.53;5.70;;;;;;;;;;5034629;28;20041;-74
2022/01/29 14:43:28;;;;;;;8.93;6.38;;;;;;;;;;5022642;28;20084;-75
2022/01/29 14:46:01;;;;;;;8.75;7.85;;;;;;;;;;5037129;28;20552;-74
2022/01/29 14:48:29;;;;;;;10.80;7.22;;;;;;;;;;5019549;28;20067;-74
2022/01/29 14:50:56;;;;;;;8.45;7.00;;;;;;;;;;5038479;28;20124;-75
2022/01/29 14:53:24;;;;;;;9.35;6.78;;;;;;;;;;5020472;28;20072;-74
2022/01/29 14:55:51;;;;;;;8.88;7.32;;;;;;;;;;5042040;28;20053;-75
2022/01/29 14:58:18;;;;;;;11.88;7.47;;;;;;;;;;4994366;28;20042;-74
2022/01/29 15:00:46;;;;;;;11.15;7.40;;;;;;;;;;4996021;28;20057;-74
2022/01/29 15:03:13;;;;;;;8.45;6.93;;;;;;;;;;4999491;28;20046;-75
2022/01/29 15:05:41;;;;;;;7.03;5.80;;;;;;;;;;4998797;28;20049;-74